createdAt,value
2024-04-12T00:04:26.154Z,4.1
2024-04-12T00:09:30.721Z,4.1
2024-04-12T00:14:34.330Z,3.8
2024-04-12T00:19:38.814Z,3.8
2024-04-12T00:24:43.827Z,3.8
2024-04-12T00:29:46.909Z,3.9
2024-04-12T00:39:55.970Z,3.8
2024-04-12T00:44:59.969Z,3.7
2024-04-12T01:00:13.546Z,4.3
2024-04-12T01:05:16.639Z,4.4
2024-04-12T01:10:21.165Z,4.3
2024-04-12T01:15:25.757Z,4.1
2024-04-12T01:20:29.281Z,4
2024-04-12T01:25:33.778Z,4.1
2024-04-12T01:30:38.310Z,4
2024-04-12T01:35:41.884Z,3.9
2024-04-12T01:40:46.422Z,4.1
2024-04-12T01:45:50.934Z,4.1
2024-04-12T01:50:54.675Z,3.8
2024-04-12T01:55:59.043Z,3.7
2024-04-12T02:01:02.635Z,3.6
2024-04-12T02:06:07.288Z,3.8
2024-04-12T02:11:11.682Z,3.7
2024-04-12T02:16:15.179Z,3.7
2024-04-12T02:21:19.714Z,3.5
2024-04-12T02:26:24.255Z,3.6
2024-04-12T02:31:28.784Z,3.5
2024-04-12T02:36:32.441Z,3.4
2024-04-12T02:41:36.974Z,3.4
2024-04-12T02:46:41.402Z,3.4
2024-04-12T02:51:44.985Z,3.2
2024-04-12T02:56:49.524Z,3.3
2024-04-12T03:01:54.062Z,3.2
2024-04-12T03:06:57.672Z,3.3
2024-04-12T03:12:02.187Z,3.3
2024-04-12T03:17:06.661Z,3.3
2024-04-12T03:22:10.211Z,3.2
2024-04-12T03:27:14.754Z,3.2
2024-04-12T03:32:19.341Z,3.1
2024-04-12T03:37:23.807Z,3
2024-04-12T03:42:27.346Z,2.7
2024-04-12T03:47:31.958Z,2.6
2024-04-12T03:52:36.400Z,2.6
2024-04-12T03:57:39.964Z,2.8
2024-04-12T04:02:44.905Z,3
2024-04-12T04:07:49.065Z,3.2
2024-04-12T04:12:52.582Z,3.3
2024-04-12T04:17:57.273Z,3.4
2024-04-12T04:23:01.661Z,3.4
2024-04-12T04:28:05.205Z,3.5
2024-04-12T04:33:09.811Z,3.4
2024-04-12T04:38:14.288Z,3.2
2024-04-12T04:43:18.772Z,3.1
2024-04-12T04:48:22.425Z,3.1
2024-04-12T04:53:26.893Z,3.2
2024-04-12T04:58:31.449Z,3.2
2024-04-12T05:03:35.101Z,3.1
2024-04-12T05:08:39.502Z,3.1
2024-04-12T05:13:44.012Z,3.1
2024-04-12T05:18:47.617Z,3.2
2024-04-12T05:23:52.112Z,3.3
2024-04-12T05:28:56.618Z,3.4
2024-04-12T05:34:00.284Z,3.6
2024-04-12T05:39:04.795Z,3.6
2024-04-12T05:44:09.264Z,3.6
2024-04-12T05:49:13.821Z,3.6
2024-04-12T05:54:17.382Z,3.7
2024-04-12T05:59:21.852Z,3.7
2024-04-12T06:04:26.423Z,3.7
2024-04-12T06:14:36.210Z,3.5
2024-04-12T06:19:38.042Z,3.7
2024-04-12T06:24:42.531Z,3.6
2024-04-12T06:29:46.121Z,3.3
2024-04-12T06:39:55.200Z,3.7
2024-04-12T06:50:03.368Z,3.5
2024-04-12T06:55:07.816Z,3.5
2024-04-12T07:00:12.393Z,3.7
2024-04-12T07:05:15.901Z,3.8
2024-04-12T07:10:20.417Z,3.6
2024-04-12T07:15:25.073Z,3.7
2024-04-12T07:20:29.342Z,3.9
2024-04-12T07:25:33.039Z,3.7
2024-04-12T07:30:37.570Z,3.7
2024-04-12T07:35:41.144Z,3.6
2024-04-12T07:40:45.675Z,3.6
2024-04-12T07:45:50.214Z,3.4
2024-04-12T07:50:54.833Z,3.2
2024-04-12T07:55:58.290Z,3.2
2024-04-12T08:01:02.834Z,3.3
2024-04-12T08:06:07.478Z,3.4
2024-04-12T08:11:10.894Z,3.2
2024-04-12T08:31:28.056Z,3.4
2024-04-12T08:36:32.574Z,3.4
2024-04-12T08:41:36.165Z,3.7
2024-04-12T08:46:40.712Z,3.7
2024-04-12T08:51:45.217Z,3.8
2024-04-12T09:01:53.288Z,3.9
2024-04-12T09:06:57.835Z,3.6
2024-04-12T09:12:02.356Z,3.9
2024-04-12T09:17:05.935Z,3.8
2024-04-12T09:22:10.433Z,4.3
2024-04-12T09:27:15.019Z,4.2
2024-04-12T09:32:18.524Z,4.6
2024-04-12T09:37:23.044Z,4.7
2024-04-12T09:42:27.608Z,4.9
2024-04-12T09:47:31.195Z,5.2
2024-04-12T09:52:35.664Z,4.7
2024-04-12T09:57:40.206Z,4.4
2024-04-12T10:07:48.293Z,4.6
2024-04-12T10:12:52.837Z,4.1
2024-04-12T10:17:57.383Z,4.3
2024-04-12T10:23:00.898Z,4.8
2024-04-12T10:28:04.445Z,4.6
2024-04-12T10:33:09.032Z,4.4
2024-04-12T10:38:23.417Z,5
2024-04-12T10:43:18.418Z,5
2024-04-12T10:48:21.666Z,4.7
2024-04-12T10:53:26.149Z,5
2024-04-12T10:58:30.654Z,4.6
2024-04-12T11:03:34.354Z,4.6
2024-04-12T11:08:38.828Z,4.5
2024-04-12T11:13:43.305Z,4.7
2024-04-12T11:18:46.926Z,5.1
2024-04-12T11:23:51.385Z,4.9
2024-04-12T11:28:55.902Z,4.5
2024-04-12T11:34:08.398Z,4.5
2024-04-12T11:39:03.989Z,4.5
2024-04-12T11:44:08.500Z,4.6
2024-04-12T11:49:13.130Z,4.7
2024-04-12T11:54:16.719Z,5.2
2024-04-12T11:59:21.174Z,5.1
2024-04-12T12:04:25.902Z,5.5
2024-04-12T12:09:29.261Z,5
2024-04-12T12:14:33.818Z,5.2
2024-04-12T12:19:38.347Z,4.7
2024-04-12T12:29:46.465Z,5.4
2024-04-12T12:34:50.948Z,5
2024-04-12T12:39:54.498Z,4.8
2024-04-12T12:50:03.613Z,5.4
2024-04-12T12:55:08.147Z,4.7
2024-04-12T13:00:11.683Z,4.7
2024-04-12T13:05:16.215Z,5
2024-04-12T13:10:20.712Z,4.9
2024-04-12T13:15:24.322Z,5.1
2024-04-12T13:20:28.827Z,5
2024-04-12T13:25:33.363Z,4.6
2024-04-12T13:30:36.912Z,4.7
2024-04-12T13:35:41.454Z,5.1
2024-04-12T13:40:46.008Z,5.1
2024-04-12T13:45:49.522Z,4.8
2024-04-12T13:50:54.096Z,4.7
2024-04-12T13:55:58.581Z,4.8
2024-04-12T14:01:03.182Z,5.3
2024-04-12T14:06:06.737Z,5.3
2024-04-12T14:11:11.210Z,5.3
2024-04-12T14:16:15.811Z,5.3
2024-04-12T14:21:22.867Z,5.8
2024-04-12T14:31:28.451Z,5.5
2024-04-12T14:36:31.907Z,5.6
2024-04-12T14:41:36.464Z,5.6
2024-04-12T14:46:40.119Z,5.9
2024-04-12T14:51:44.539Z,5.5
2024-04-12T14:56:49.104Z,5.8
2024-04-12T15:01:52.704Z,6.2
2024-04-12T15:06:57.120Z,6.2
2024-04-12T15:12:01.675Z,6.2
2024-04-12T15:17:05.247Z,6.4
2024-04-12T15:22:09.747Z,6.3
2024-04-12T15:27:14.359Z,6.1
2024-04-12T15:32:18.832Z,6.1
2024-04-12T15:37:22.361Z,6.4
2024-04-12T15:42:26.893Z,6.7
2024-04-12T15:47:31.511Z,6.8
2024-04-12T15:57:39.597Z,6.6
2024-04-12T16:02:44.439Z,6.3
2024-04-12T16:07:47.679Z,6.4
2024-04-12T16:12:52.109Z,6.7
2024-04-12T16:17:56.767Z,6.5
2024-04-12T16:23:00.211Z,6.7
2024-04-12T16:28:04.735Z,6.5
2024-04-12T16:33:09.399Z,6.2
2024-04-12T16:38:13.826Z,6.2
2024-04-12T16:43:17.365Z,6.2
2024-04-12T16:48:22.045Z,6.1
2024-04-12T16:53:26.449Z,6
2024-04-12T16:58:29.991Z,5.8
2024-04-12T17:03:34.775Z,6
2024-04-12T17:08:39.035Z,6.2
2024-04-12T17:13:42.600Z,5.9
2024-04-12T17:18:47.222Z,5.9
2024-04-12T17:23:51.643Z,5.6
2024-04-12T17:33:59.738Z,5.6
2024-04-12T17:39:04.308Z,5.4
2024-04-12T17:44:08.815Z,5.5
2024-04-12T17:49:12.548Z,5.4
2024-04-12T17:59:21.418Z,5
2024-04-12T18:04:25.191Z,5.1
2024-04-12T18:09:30.835Z,5.1
2024-04-12T18:14:34.037Z,5
2024-04-12T18:19:37.617Z,4.8
2024-04-12T18:24:42.103Z,4.9
2024-04-12T18:29:46.673Z,4.6
2024-04-12T18:39:54.764Z,4.4
2024-04-12T18:44:59.333Z,4.4
2024-04-12T18:50:03.835Z,4.3
2024-04-12T18:55:07.369Z,4.2
2024-04-12T19:00:10.972Z,4.1
2024-04-12T19:05:15.468Z,4.1
2024-04-12T19:10:19.993Z,4
2024-04-12T19:15:23.625Z,4
2024-04-12T19:20:28.113Z,4
2024-04-12T19:25:32.603Z,3.8
2024-04-12T19:30:36.262Z,3.9
2024-04-12T19:35:40.679Z,3.8
2024-04-12T19:40:45.263Z,3.7
2024-04-12T19:45:49.733Z,3.7
2024-04-12T19:50:53.348Z,3.8
2024-04-12T19:55:57.861Z,3.9
2024-04-12T20:01:02.394Z,3.9
2024-04-12T20:06:06.052Z,4
2024-04-12T20:16:14.961Z,4
2024-04-12T20:21:18.530Z,3.9
2024-04-12T20:26:23.121Z,4.1
2024-04-12T20:31:27.642Z,4
2024-04-12T20:36:31.178Z,4.2
2024-04-12T20:41:35.723Z,4.1
2024-04-12T20:46:40.246Z,4.1
2024-04-12T20:51:44.767Z,3.9
2024-04-12T20:56:48.322Z,4
2024-04-12T21:01:52.845Z,3.9
2024-04-12T21:06:57.374Z,4
2024-04-12T21:12:00.944Z,3.8
2024-04-12T21:17:05.481Z,3.8
2024-04-12T21:22:10.059Z,3.8
2024-04-12T21:27:13.577Z,3.8
2024-04-12T21:32:18.067Z,3.9
2024-04-12T21:37:22.622Z,3.8
2024-04-12T21:42:26.269Z,3.8
2024-04-12T21:47:30.766Z,3.8
2024-04-12T21:52:35.222Z,3.7
2024-04-12T21:57:39.781Z,3.7
2024-04-12T22:02:43.365Z,3.8
2024-04-12T22:07:47.847Z,3.6
2024-04-12T22:12:52.350Z,3.8
2024-04-12T22:17:56.021Z,3.7
2024-04-12T22:23:00.455Z,3.8
2024-04-12T22:28:04.995Z,3.7
2024-04-12T22:33:08.644Z,3.6
2024-04-12T22:38:13.102Z,3.7
2024-04-12T22:43:17.640Z,3.6
2024-04-12T22:48:21.307Z,3.6
2024-04-12T22:53:25.705Z,3.6
2024-04-12T22:58:30.236Z,3.6
2024-04-12T23:03:34.870Z,3.4
2024-04-12T23:08:38.349Z,3.4
2024-04-12T23:18:46.622Z,3.4
2024-04-12T23:23:50.948Z,3.5
2024-04-12T23:28:54.528Z,3.4
2024-04-12T23:33:59.052Z,3.4
2024-04-12T23:39:03.618Z,3.5
2024-04-12T23:44:08.107Z,3.4
2024-04-12T23:49:11.649Z,3.4
2024-04-12T23:54:16.256Z,3.4
2024-04-12T23:59:20.754Z,3.4
